Time;durP1;ratioP1;P1;durP2;ratioP2;P2;SDS_P1;SDS_P2;PMS_P1;PMS_P2;Temp;Humidity;BMP_temperature;BMP_pressure;BME280_temperature;BME280_humidity;BME280_pressure;Samples;Min_cycle;Max_cycle;Signal;HPM_P1;HPM_P2
2023/10/16 00:02:06;;;;;;;0.70;0.70;;;6.30;99.90;;;;;;5094663;28;20043;-71
2023/10/16 00:04:32;;;;;;;0.70;0.70;;;6.40;99.90;;;;;;5094586;28;20036;-74
2023/10/16 00:07:00;;;;;;;0.70;0.70;;;6.40;99.90;;;;;;5094240;28;20482;-73
2023/10/16 00:09:28;;;;;;;0.70;0.70;;;6.40;99.90;;;;;;5094332;28;20090;-73
2023/10/16 00:11:54;;;;;;;0.70;0.70;;;6.50;99.90;;;;;;5094780;28;20047;-74
2023/10/16 00:14:23;;;;;;;0.70;0.70;;;6.50;99.90;;;;;;5094303;28;20056;-75
2023/10/16 00:16:50;;;;;;;0.70;0.70;;;6.50;99.90;;;;;;5094349;28;20040;-73
2023/10/16 00:19:16;;;;;;;0.70;0.70;;;7.30;99.90;;;;;;5094314;28;20137;-76
2023/10/16 00:21:45;;;;;;;7.38;2.45;;;6.50;99.90;;;;;;5094332;28;20055;-73
2023/10/16 00:24:15;;;;;;;0.70;0.70;;;6.50;99.90;;;;;;5094217;28;20536;-75
2023/10/16 00:26:48;;;;;;;0.60;0.60;;;7.30;99.90;;;;;;5094201;28;20043;-72
2023/10/16 00:29:35;;;;;;;0.70;0.70;;;6.60;99.90;;;;;;5094423;28;20044;-76
2023/10/16 00:32:07;;;;;;;0.70;0.70;;;6.60;99.90;;;;;;5094129;28;20051;-73
2023/10/16 00:34:32;;;;;;;0.70;0.70;;;6.60;99.90;;;;;;5094114;28;20036;-75
2023/10/16 00:36:58;;;;;;;0.70;0.70;;;6.70;99.90;;;;;;5094316;28;20113;-72
2023/10/16 00:39:28;;;;;;;0.77;0.77;;;6.80;99.90;;;;;;5093981;28;20036;-71
2023/10/16 00:41:57;;;;;;;0.70;0.70;;;6.70;99.90;;;;;;5092863;28;20086;-73
2023/10/16 00:44:33;;;;;;;0.70;0.70;;;6.60;99.90;;;;;;5093845;28;20097;-73
2023/10/16 00:47:01;;;;;;;0.70;0.70;;;6.70;99.90;;;;;;5093615;28;20468;-73
2023/10/16 00:49:28;;;;;;;0.68;0.68;;;7.50;99.90;;;;;;5093782;28;20032;-71
2023/10/16 00:51:54;;;;;;;0.70;0.70;;;6.60;99.90;;;;;;5094032;28;20051;-73
2023/10/16 00:54:28;;;;;;;0.80;0.80;;;6.70;99.90;;;;;;5093832;28;20476;-73
2023/10/16 00:56:55;;;;;;;0.70;0.70;;;6.70;99.90;;;;;;5093559;28;20032;-76
2023/10/16 00:59:23;;;;;;;0.75;0.75;;;6.70;99.90;;;;;;5093765;28;20086;-73
2023/10/16 01:01:52;;;;;;;0.80;0.80;;;6.70;99.90;;;;;;5093790;28;20035;-74
2023/10/16 01:04:19;;;;;;;0.70;0.70;;;6.80;99.90;;;;;;5093569;28;20043;-75
2023/10/16 01:06:46;;;;;;;0.70;0.70;;;6.80;99.90;;;;;;5093576;28;20110;-73
2023/10/16 01:09:24;;;;;;;0.70;0.70;;;6.80;99.90;;;;;;5093677;28;20040;-74
2023/10/16 01:11:51;;;;;;;0.70;0.70;;;7.20;99.90;;;;;;5094074;28;20086;-74
2023/10/16 01:14:17;;;;;;;0.70;0.70;;;6.80;99.90;;;;;;5093427;28;20039;-73
2023/10/16 01:16:46;;;;;;;0.70;0.70;;;6.80;99.90;;;;;;5093516;28;20036;-73
2023/10/16 01:19:17;;;;;;;0.70;0.70;;;6.90;99.90;;;;;;5093650;28;20032;-72
2023/10/16 01:21:43;;;;;;;0.68;0.68;;;6.90;99.90;;;;;;5094023;28;20036;-74
2023/10/16 01:24:16;;;;;;;0.70;0.70;;;7.10;99.90;;;;;;5093374;28;20039;-75
2023/10/16 01:26:42;;;;;;;0.65;0.65;;;6.90;99.90;;;;;;5093579;28;20052;-72
2023/10/16 01:29:11;;;;;;;0.70;0.70;;;6.90;99.90;;;;;;5093312;28;20391;-76
2023/10/16 01:31:38;;;;;;;0.70;0.70;;;6.90;99.90;;;;;;5093444;28;20127;-72
2023/10/16 01:34:04;;;;;;;;;;;7.60;99.90;;;;;;5093849;28;20048;-75
2023/10/16 01:36:33;;;;;;;0.70;0.70;;;7.00;99.90;;;;;;5093207;28;20362;-74
2023/10/16 01:38:59;;;;;;;0.68;0.68;;;7.00;99.90;;;;;;5093289;28;20127;-74
2023/10/16 01:41:25;;;;;;;0.70;0.70;;;7.00;99.90;;;;;;5093326;28;20051;-73
2023/10/16 01:43:55;;;;;;;0.60;0.60;;;6.90;99.90;;;;;;5093679;28;20036;-72
2023/10/16 01:46:20;;;;;;;0.60;0.60;;;6.90;99.90;;;;;;5092085;28;20118;-74
2023/10/16 01:48:46;;;;;;;0.70;0.70;;;6.90;99.90;;;;;;5093191;28;20123;-74
2023/10/16 01:51:19;;;;;;;0.70;0.70;;;6.80;99.90;;;;;;5093219;28;20033;-73
2023/10/16 01:53:47;;;;;;;0.70;0.70;;;7.40;99.90;;;;;;5093337;28;20047;-74
2023/10/16 01:56:14;;;;;;;0.70;0.70;;;6.80;99.90;;;;;;5093201;28;20044;-72
2023/10/16 01:58:44;;;;;;;0.70;0.70;;;6.80;99.90;;;;;;5093146;28;20036;-71
2023/10/16 02:01:15;;;;;;;0.65;0.65;;;6.70;99.90;;;;;;5093079;28;20543;-71
2023/10/16 02:03:44;;;;;;;0.60;0.60;;;6.70;99.90;;;;;;5093047;28;20035;-72
2023/10/16 02:06:14;;;;;;;0.70;0.70;;;6.70;99.90;;;;;;5092803;28;20498;-72
2023/10/16 02:08:40;;;;;;;1.55;1.45;;;6.70;99.90;;;;;;5093103;28;20425;-73
2023/10/16 02:11:06;;;;;;;0.70;0.70;;;6.70;99.90;;;;;;5092999;28;20055;-72
2023/10/16 02:13:36;;;;;;;0.70;0.70;;;6.80;99.90;;;;;;5092998;28;20036;-72
2023/10/16 02:16:06;;;;;;;0.70;0.70;;;6.80;99.90;;;;;;5093078;28;20395;-71
2023/10/16 02:18:40;;;;;;;0.70;0.70;;;6.80;99.90;;;;;;5092869;28;20036;-74
2023/10/16 02:21:06;;;;;;;0.60;0.60;;;6.60;99.90;;;;;;5093767;28;20467;-72
2023/10/16 02:23:32;;;;;;;0.70;0.70;;;7.00;99.90;;;;;;5096550;28;20051;-73
2023/10/16 02:26:01;;;;;;;0.70;0.70;;;6.90;99.90;;;;;;5096555;28;20047;-76
2023/10/16 02:28:31;;;;;;;0.70;0.70;;;6.90;99.90;;;;;;5096375;28;20380;-75
2023/10/16 02:31:04;;;;;;;0.70;0.70;;;7.00;99.90;;;;;;5096488;28;20420;-74
2023/10/16 02:33:35;;;;;;;0.70;0.70;;;6.90;99.90;;;;;;5096469;28;20043;-73
2023/10/16 02:36:02;;;;;;;0.70;0.70;;;6.90;99.90;;;;;;5096770;28;20109;-73
2023/10/16 02:38:28;;;;;;;0.60;0.60;;;7.00;99.90;;;;;;5096313;28;20044;-75
2023/10/16 02:41:03;;;;;;;0.70;0.70;;;7.00;99.90;;;;;;5096279;28;20044;-72
2023/10/16 02:43:30;;;;;;;0.70;0.70;;;6.90;99.90;;;;;;5096252;28;20042;-73
2023/10/16 02:45:56;;;;;;;0.90;0.90;;;6.90;99.90;;;;;;5096304;28;20105;-75
2023/10/16 02:48:23;;;;;;;0.70;0.70;;;6.90;99.90;;;;;;5096046;28;20090;-72
2023/10/16 02:50:50;;;;;;;0.70;0.70;;;6.90;99.90;;;;;;5095931;28;20043;-72
2023/10/16 02:53:21;;;;;;;0.75;0.75;;;6.90;99.90;;;;;;5096044;28;20105;-75
2023/10/16 02:56:08;;;;;;;0.70;0.70;;;6.90;99.90;;;;;;5096003;28;20051;-73
2023/10/16 02:58:55;;;;;;;0.70;0.70;;;6.90;99.90;;;;;;5095343;28;20047;-73
2023/10/16 03:01:22;;;;;;;0.70;0.70;;;6.90;99.90;;;;;;5096193;28;20035;-74
2023/10/16 03:03:48;;;;;;;0.70;0.70;;;6.90;99.90;;;;;;5095797;28;20468;-73
2023/10/16 03:06:15;;;;;;;0.70;0.70;;;6.90;99.90;;;;;;5095976;28;20071;-72
2023/10/16 03:08:51;;;;;;;0.70;0.70;;;6.90;99.90;;;;;;5095608;28;20479;-72
2023/10/16 03:11:18;;;;;;;0.65;0.65;;;7.60;99.90;;;;;;5096264;28;20119;-73
2023/10/16 03:13:47;;;;;;;;;;;6.90;99.90;;;;;;5095724;28;20529;-71
2023/10/16 03:16:23;;;;;;;0.80;0.80;;;6.90;99.90;;;;;;5095771;28;19920;-74
2023/10/16 03:18:49;;;;;;;0.70;0.70;;;6.80;99.90;;;;;;5095711;28;20043;-73
2023/10/16 03:23:44;;;;;;;0.70;0.70;;;6.80;99.90;;;;;;5095485;28;20044;-74
2023/10/16 03:26:21;;;;;;;0.70;0.70;;;6.80;99.90;;;;;;5095342;28;20407;-73
2023/10/16 03:28:48;;;;;;;0.80;0.80;;;6.80;99.90;;;;;;5095575;28;20032;-73
2023/10/16 03:31:14;;;;;;;0.70;0.70;;;6.80;99.90;;;;;;5095474;28;20040;-72
2023/10/16 03:33:40;;;;;;;0.80;0.80;;;6.70;99.90;;;;;;5095184;28;20039;-72
2023/10/16 03:36:05;;;;;;;0.80;0.80;;;6.80;99.90;;;;;;5094018;28;20383;-74
2023/10/16 03:38:36;;;;;;;0.70;0.70;;;6.80;99.90;;;;;;5095558;28;20028;-74
2023/10/16 03:41:12;;;;;;;0.70;0.70;;;6.80;99.90;;;;;;5095218;28;20372;-75
2023/10/16 03:43:42;;;;;;;0.70;0.70;;;6.70;99.90;;;;;;5094955;28;20111;-74
2023/10/16 03:46:10;;;;;;;0.70;0.70;;;6.70;99.90;;;;;;5095019;28;20051;-74
2023/10/16 03:48:37;;;;;;;0.70;0.70;;;6.70;99.90;;;;;;5095330;28;20129;-72
2023/10/16 03:51:02;;;;;;;0.70;0.70;;;6.60;99.90;;;;;;5095008;28;20042;-72
2023/10/16 03:53:32;;;;;;;0.80;0.80;;;6.60;99.90;;;;;;5095447;28;20032;-73
2023/10/16 03:55:58;;;;;;;0.70;0.70;;;6.60;99.90;;;;;;5094990;28;20036;-72
2023/10/16 03:58:26;;;;;;;0.70;0.70;;;6.60;99.90;;;;;;5094886;28;20032;-73
2023/10/16 04:00:58;;;;;;;0.70;0.70;;;6.60;99.90;;;;;;5094611;28;20486;-75
2023/10/16 04:03:36;;;;;;;0.77;0.77;;;6.50;99.90;;;;;;5095192;28;20046;-71
2023/10/16 04:06:08;;;;;;;0.73;0.73;;;6.60;99.90;;;;;;5094694;28;20048;-72
2023/10/16 04:08:37;;;;;;;0.80;0.80;;;6.50;99.90;;;;;;5094423;28;20059;-74
2023/10/16 04:11:03;;;;;;;0.80;0.80;;;6.60;99.90;;;;;;5094473;28;20075;-71
2023/10/16 04:13:31;;;;;;;0.70;0.70;;;6.60;99.90;;;;;;5094468;28;20039;-74
2023/10/16 04:16:09;;;;;;;0.80;0.80;;;6.60;99.90;;;;;;5094392;28;20479;-73
2023/10/16 04:18:39;;;;;;;0.80;0.80;;;7.30;99.90;;;;;;5094946;28;20126;-74
2023/10/16 04:26:29;;;;;;;0.80;0.80;;;6.70;99.90;;;;;;5094537;28;20123;-73
2023/10/16 04:31:44;;;;;;;0.80;0.80;;;6.80;99.90;;;;;;5094465;28;20079;-74
2023/10/16 04:53:13;;;;;;;0.80;0.80;;;7.00;99.90;;;;;;5093933;28;20089;-74
2023/10/16 05:06:49;;;;;;;1.17;1.10;;;6.90;99.90;;;;;;5093640;28;20040;-74
2023/10/16 05:10:12;;;;;;;1.80;1.70;;;6.90;99.90;;;;;;5090220;28;20040;-75
2023/10/16 05:13:22;;;;;;;0.80;0.80;;;6.90;99.90;;;;;;5093457;28;20075;-73
2023/10/16 05:17:57;;;;;;;0.90;0.90;;;6.80;99.90;;;;;;5093800;28;20482;-75
2023/10/16 06:14:09;;;;;;;0.80;0.80;;;6.80;99.90;;;;;;5093889;28;20044;-72
2023/10/16 06:15:22;;;;;;;0.90;0.90;;;6.60;99.90;;;;;;5096723;28;20052;-72
2023/10/16 06:17:47;;;;;;;0.90;0.90;;;6.50;99.90;;;;;;5096779;28;20046;-76
2023/10/16 06:20:20;;;;;;;0.80;0.80;;;6.50;99.90;;;;;;5096217;28;20039;-75
2023/10/16 06:22:51;;;;;;;0.80;0.80;;;6.50;99.90;;;;;;5096745;28;20052;-74
2023/10/16 06:25:19;;;;;;;0.80;0.80;;;6.60;99.90;;;;;;5096647;28;20039;-76
2023/10/16 06:27:46;;;;;;;0.80;0.80;;;6.50;99.90;;;;;;5096828;28;20040;-73
2023/10/16 06:30:18;;;;;;;0.90;0.90;;;6.40;99.90;;;;;;5095218;28;20036;-75
2023/10/16 06:32:44;;;;;;;0.80;0.80;;;6.40;99.90;;;;;;5096828;28;20395;-73
2023/10/16 06:35:16;;;;;;;0.80;0.80;;;6.40;99.90;;;;;;5096198;28;20123;-73
2023/10/16 06:37:51;;;;;;;0.80;0.80;;;6.40;99.90;;;;;;5096821;28;20036;-76
2023/10/16 06:40:24;;;;;;;0.80;0.80;;;7.00;99.90;;;;;;5096519;28;20549;-75
2023/10/16 06:42:54;;;;;;;0.85;0.85;;;7.30;99.90;;;;;;5095797;28;20036;-72
2023/10/16 06:45:22;;;;;;;0.80;0.80;;;6.40;99.90;;;;;;5096134;28;20044;-72
2023/10/16 06:47:48;;;;;;;0.80;0.80;;;6.50;99.90;;;;;;5095955;28;20052;-74
2023/10/16 06:52:51;;;;;;;0.80;0.80;;;6.50;99.90;;;;;;5096521;28;20047;-77
2023/10/16 06:55:17;;;;;;;0.80;0.80;;;6.60;99.90;;;;;;5097975;28;20422;-78
2023/10/16 06:57:43;;;;;;;0.80;0.80;;;7.10;99.90;;;;;;5098348;28;20029;-75
2023/10/16 07:00:22;;;;;;;0.82;0.82;;;6.70;99.90;;;;;;5098574;28;20091;-82
2023/10/16 07:02:52;;;;;;;0.80;0.80;;;6.70;99.90;;;;;;5096660;28;20079;-82
2023/10/16 07:05:22;;;;;;;0.80;0.80;;;6.80;99.90;;;;;;5095338;28;20083;-74
2023/10/16 07:07:48;;;;;;;0.80;0.80;;;6.80;99.90;;;;;;5095791;28;20055;-76
2023/10/16 07:10:14;;;;;;;0.80;0.80;;;7.20;99.90;;;;;;5095674;28;20040;-73
2023/10/16 07:15:30;;;;;;;0.80;0.80;;;7.00;99.90;;;;;;5095539;28;20130;-78
2023/10/16 07:18:05;;;;;;;0.77;0.77;;;7.00;99.90;;;;;;5096358;28;20140;-82
2023/10/16 07:20:34;;;;;;;0.80;0.80;;;7.10;99.90;;;;;;5096039;28;20040;-83
2023/10/16 07:23:00;;;;;;;0.80;0.80;;;7.10;99.90;;;;;;5095631;28;20502;-75
2023/10/16 07:25:37;;;;;;;0.70;0.70;;;7.10;99.90;;;;;;5095315;28;20053;-76
2023/10/16 07:28:08;;;;;;;0.90;0.90;;;7.30;99.90;;;;;;5095344;28;20054;-78
2023/10/16 07:30:35;;;;;;;0.75;0.75;;;7.30;99.90;;;;;;5095433;28;20058;-78
2023/10/16 07:33:04;;;;;;;0.75;0.75;;;7.30;99.90;;;;;;5095322;28;20050;-81
2023/10/16 07:35:30;;;;;;;0.77;0.77;;;7.40;99.90;;;;;;5094461;28;20067;-79
2023/10/16 07:37:58;;;;;;;0.70;0.70;;;7.40;99.90;;;;;;5094238;28;20071;-78
2023/10/16 07:40:25;;;;;;;0.70;0.70;;;7.60;99.90;;;;;;5094977;28;20044;-77
2023/10/16 07:42:52;;;;;;;0.90;0.90;;;7.60;99.90;;;;;;5095260;28;20039;-79
2023/10/16 07:45:19;;;;;;;0.70;0.70;;;7.70;99.90;;;;;;5095055;28;20133;-83
2023/10/16 07:47:48;;;;;;;0.80;0.80;;;7.80;99.90;;;;;;5095015;28;20040;-83
2023/10/16 07:50:15;;;;;;;0.70;0.70;;;8.50;99.90;;;;;;5095010;28;20046;-83
2023/10/16 07:52:46;;;;;;;0.80;0.80;;;7.90;99.90;;;;;;5094957;28;20131;-81
2023/10/16 07:55:18;;;;;;;0.70;0.70;;;8.00;99.90;;;;;;5095377;28;20523;-81
2023/10/16 07:57:46;;;;;;;0.70;0.70;;;8.10;99.90;;;;;;5095285;28;20072;-82
2023/10/16 08:00:15;;;;;;;0.70;0.70;;;8.10;99.90;;;;;;5095143;28;20059;-82
2023/10/16 08:02:46;;;;;;;0.70;0.70;;;8.30;99.90;;;;;;5094869;28;20464;-82
2023/10/16 08:05:15;;;;;;;0.70;0.70;;;8.30;99.90;;;;;;5094705;28;20456;-82
2023/10/16 08:07:48;;;;;;;0.70;0.70;;;8.50;99.90;;;;;;5094291;28;20093;-82
2023/10/16 08:10:41;;;;;;;0.70;0.70;;;8.40;99.90;;;;;;5094740;28;20036;-82
2023/10/16 08:13:14;;;;;;;0.77;0.77;;;8.70;99.90;;;;;;5094654;28;20043;-81
2023/10/16 08:15:49;;;;;;;0.70;0.70;;;8.50;99.90;;;;;;5093741;28;20040;-79
2023/10/16 08:18:18;;;;;;;0.70;0.70;;;8.50;99.90;;;;;;5094528;28;20051;-76
2023/10/16 08:21:00;;;;;;;0.70;0.70;;;9.30;99.90;;;;;;5094276;28;20426;-73
2023/10/16 08:23:31;;;;;;;0.70;0.70;;;8.60;99.90;;;;;;5094463;28;20043;-77
2023/10/16 08:26:00;;;;;;;0.70;0.70;;;8.90;99.90;;;;;;5094481;28;20054;-72
2023/10/16 08:28:35;;;;;;;0.70;0.70;;;8.80;99.90;;;;;;5094287;28;20114;-75
2023/10/16 08:31:22;;;;;;;0.70;0.70;;;8.90;99.90;;;;;;5094811;28;20434;-74
2023/10/16 08:33:49;;;;;;;0.65;0.65;;;9.00;99.90;;;;;;5094640;28;20036;-74
2023/10/16 08:36:18;;;;;;;0.60;0.60;;;9.00;99.90;;;;;;5094155;28;20133;-73
2023/10/16 08:38:52;;;;;;;0.70;0.70;;;9.00;99.90;;;;;;5094206;28;20130;-76
2023/10/16 08:41:23;;;;;;;0.70;0.70;;;9.20;99.90;;;;;;5093774;28;20498;-73
2023/10/16 08:43:53;;;;;;;0.60;0.60;;;9.20;99.90;;;;;;5093193;28;20032;-73
2023/10/16 08:46:24;;;;;;;0.68;0.68;;;9.30;99.90;;;;;;5093978;28;20480;-73
2023/10/16 08:48:57;;;;;;;0.70;0.70;;;9.50;99.90;;;;;;5093896;28;20040;-75
2023/10/16 08:51:22;;;;;;;0.82;0.82;;;9.50;99.90;;;;;;5093918;28;20380;-72
2023/10/16 08:53:48;;;;;;;0.60;0.60;;;9.60;99.90;;;;;;5094290;28;20032;-73
2023/10/16 08:56:17;;;;;;;0.60;0.60;;;9.60;99.90;;;;;;5093961;28;20387;-75
2023/10/16 08:58:46;;;;;;;0.60;0.60;;;9.70;99.90;;;;;;5094081;28;20417;-73
2023/10/16 09:01:16;;;;;;;0.60;0.60;;;9.80;99.90;;;;;;5093999;28;20108;-75
2023/10/16 09:03:44;;;;;;;0.60;0.60;;;9.90;99.90;;;;;;5093819;28;20048;-75
2023/10/16 09:06:13;;;;;;;0.93;0.93;;;10.20;99.90;;;;;;5093727;28;20044;-75
2023/10/16 09:08:41;;;;;;;0.60;0.60;;;10.00;99.90;;;;;;5093266;28;20090;-76
2023/10/16 09:11:10;;;;;;;0.60;0.60;;;10.10;99.90;;;;;;5093677;28;20044;-77
2023/10/16 09:13:35;;;;;;;0.68;0.68;;;10.20;99.90;;;;;;5093598;28;20115;-76
2023/10/16 09:16:03;;;;;;;0.80;0.80;;;10.30;99.90;;;;;;5093333;28;20119;-75
2023/10/16 09:18:31;;;;;;;0.60;0.60;;;10.40;99.90;;;;;;5092875;28;20044;-76
2023/10/16 09:21:00;;;;;;;0.60;0.60;;;10.70;99.90;;;;;;5093468;28;20051;-74
2023/10/16 09:23:36;;;;;;;0.60;0.60;;;10.40;99.90;;;;;;5093209;28;20047;-76
2023/10/16 09:26:06;;;;;;;0.70;0.70;;;10.50;99.90;;;;;;5093226;28;20047;-76
2023/10/16 09:28:33;;;;;;;0.60;0.60;;;10.50;99.90;;;;;;5092445;28;20047;-77
2023/10/16 09:31:01;;;;;;;0.70;0.70;;;10.60;99.90;;;;;;5096290;28;20118;-80
2023/10/16 09:33:27;;;;;;;0.50;0.50;;;10.70;99.90;;;;;;5097372;28;20050;-74
2023/10/16 09:36:00;;;;;;;0.60;0.60;;;10.70;99.90;;;;;;5097636;28;20123;-75
2023/10/16 09:38:32;;;;;;;0.60;0.60;;;10.80;99.90;;;;;;5097888;28;20048;-77
2023/10/16 09:49:21;;;;;;;0.60;0.60;;;10.70;99.90;;;;;;5097356;28;20039;-73
2023/10/16 09:51:50;;;;;;;0.60;0.60;;;10.80;99.90;;;;;;5097074;28;20456;-76
2023/10/16 09:54:17;;;;;;;0.60;0.60;;;10.90;99.90;;;;;;5097262;28;20040;-77
2023/10/16 09:56:52;;;;;;;;;;;10.80;99.90;;;;;;5098258;28;20119;-78
2023/10/16 09:59:26;;;;;;;1.25;1.20;;;10.80;99.90;;;;;;5097773;28;19994;-74
2023/10/16 10:01:55;;;;;;;0.60;0.60;;;10.80;99.90;;;;;;5098664;28;20039;-75
2023/10/16 10:04:24;;;;;;;0.60;0.60;;;10.70;99.90;;;;;;5098130;28;20040;-76
2023/10/16 10:06:57;;;;;;;0.60;0.60;;;10.80;99.90;;;;;;5096031;28;20051;-75
2023/10/16 10:09:41;;;;;;;0.60;0.60;;;10.70;99.90;;;;;;5097396;28;20055;-77
2023/10/16 10:12:42;;;;;;;0.60;0.60;;;10.80;99.90;;;;;;5095699;28;20054;-74
2023/10/16 10:15:18;;;;;;;0.60;0.60;;;10.90;99.90;;;;;;5096765;28;20040;-76
2023/10/16 10:17:47;;;;;;;0.50;0.50;;;10.90;99.90;;;;;;5096649;28;20076;-72
2023/10/16 10:20:26;;;;;;;0.60;0.60;;;10.90;99.90;;;;;;5096724;28;20040;-74
2023/10/16 10:22:58;;;;;;;0.60;0.60;;;10.90;99.90;;;;;;5095464;28;20044;-79
2023/10/16 10:25:37;;;;;;;0.50;0.50;;;11.00;99.90;;;;;;5092499;28;20353;-73
2023/10/16 10:28:22;;;;;;;0.60;0.60;;;11.00;99.90;;;;;;5094782;28;20075;-77
2023/10/16 10:30:49;;;;;;;0.60;0.60;;;11.10;99.90;;;;;;5086502;28;20552;-73
2023/10/16 10:33:37;;;;;;;0.60;0.60;;;11.10;99.90;;;;;;5085104;28;20045;-76
2023/10/16 10:36:33;;;;;;;0.60;0.60;;;11.10;99.90;;;;;;5081336;28;20044;-76
2023/10/16 10:39:22;;;;;;;0.60;0.60;;;11.10;99.90;;;;;;5075133;28;20449;-77
2023/10/16 10:41:50;;;;;;;0.60;0.60;;;11.20;99.90;;;;;;5069768;28;20052;-74
2023/10/16 10:44:19;;;;;;;0.50;0.50;;;11.20;99.90;;;;;;5073218;28;20040;-76
2023/10/16 10:46:53;;;;;;;0.60;0.60;;;11.30;99.90;;;;;;5076088;28;20047;-76
2023/10/16 10:49:30;;;;;;;0.60;0.60;;;11.30;99.90;;;;;;5074964;28;20041;-73
2023/10/16 10:51:55;;;;;;;0.50;0.50;;;11.40;99.90;;;;;;5075974;28;20484;-75
2023/10/16 10:54:24;;;;;;;0.52;0.52;;;11.50;99.90;;;;;;5075624;28;20075;-73
2023/10/16 10:56:50;;;;;;;0.60;0.60;;;11.60;99.90;;;;;;5074473;28;20410;-75
2023/10/16 10:59:39;;;;;;;0.60;0.60;;;11.60;99.90;;;;;;5075932;28;20044;-73
2023/10/16 11:04:48;;;;;;;0.50;0.50;;;11.70;99.90;;;;;;5075867;28;20048;-74
2023/10/16 11:07:26;;;;;;;0.60;0.60;;;12.00;99.90;;;;;;5075426;28;20048;-74
2023/10/16 11:09:52;;;;;;;0.70;0.70;;;11.70;99.90;;;;;;5074960;28;20048;-72
2023/10/16 11:12:24;;;;;;;0.70;0.70;;;11.70;99.90;;;;;;5075546;28;20044;-75
2023/10/16 11:14:51;;;;;;;0.60;0.60;;;11.60;99.90;;;;;;5075496;28;20426;-75
2023/10/16 11:17:39;;;;;;;0.80;0.80;;;12.10;99.90;;;;;;5075375;28;20456;-74
2023/10/16 11:20:27;;;;;;;0.70;0.70;;;12.20;99.90;;;;;;5075397;28;20175;-75
2023/10/16 11:22:56;;;;;;;0.70;0.70;;;11.70;99.90;;;;;;5073620;28;20137;-75
2023/10/16 11:25:29;;;;;;;0.70;0.70;;;11.70;99.90;;;;;;5075281;28;20047;-75
2023/10/16 11:27:58;;;;;;;0.70;0.70;;;11.70;99.90;;;;;;5075327;28;20036;-74
2023/10/16 11:30:26;;;;;;;0.70;0.70;;;11.70;99.90;;;;;;5075040;28;20044;-76
2023/10/16 11:32:54;;;;;;;0.70;0.70;;;11.70;99.90;;;;;;5074956;28;20174;-74
2023/10/16 11:35:21;;;;;;;0.60;0.60;;;11.80;99.90;;;;;;5075059;28;20036;-74
2023/10/16 11:37:55;;;;;;;1.65;1.55;;;11.80;99.90;;;;;;5075210;28;20055;-75
2023/10/16 11:40:31;;;;;;;0.70;0.70;;;11.80;99.90;;;;;;5074950;28;20028;-76
2023/10/16 11:42:58;;;;;;;0.60;0.60;;;11.90;99.90;;;;;;5074601;28;20037;-73
2023/10/16 11:45:24;;;;;;;;;;;11.90;99.90;;;;;;5075241;28;20047;-72
2023/10/16 11:50:38;;;;;;;0.60;0.60;;;11.80;99.90;;;;;;5074859;28;20133;-75
2023/10/16 11:53:07;;;;;;;0.60;0.60;;;11.90;99.90;;;;;;5074774;28;20070;-79
2023/10/16 11:55:36;;;;;;;0.60;0.60;;;11.90;99.90;;;;;;5074589;28;20388;-74
2023/10/16 11:58:03;;;;;;;0.60;0.60;;;11.90;99.90;;;;;;5074502;28;20495;-72
2023/10/16 12:00:31;;;;;;;0.60;0.60;;;11.90;99.90;;;;;;5074397;28;20037;-73
2023/10/16 12:02:56;;;;;;;0.60;0.60;;;12.00;99.90;;;;;;5074427;28;20052;-74
2023/10/16 12:05:27;;;;;;;0.60;0.60;;;11.90;99.90;;;;;;5074372;28;20090;-76
2023/10/16 12:07:56;;;;;;;0.60;0.60;;;12.00;99.90;;;;;;5074038;28;20045;-76
2023/10/16 12:10:22;;;;;;;0.60;0.60;;;11.90;99.90;;;;;;5074993;28;20062;-77
2023/10/16 12:12:49;;;;;;;0.60;0.60;;;12.00;99.90;;;;;;5074118;28;20044;-75
2023/10/16 12:15:15;;;;;;;0.57;0.57;;;12.00;99.90;;;;;;5074467;28;20044;-75
2023/10/16 12:17:43;;;;;;;0.60;0.60;;;12.00;99.90;;;;;;5074154;28;20110;-77
2023/10/16 12:20:11;;;;;;;0.60;0.60;;;12.00;99.90;;;;;;5073925;28;20083;-77
2023/10/16 12:22:39;;;;;;;0.60;0.60;;;12.00;99.90;;;;;;5074030;28;20044;-77
2023/10/16 12:25:09;;;;;;;0.50;0.50;;;12.10;99.90;;;;;;5073976;28;20044;-77
2023/10/16 12:27:36;;;;;;;0.60;0.60;;;12.10;99.90;;;;;;5073934;28;20044;-77
2023/10/16 12:30:04;;;;;;;0.50;0.50;;;12.00;99.90;;;;;;5074151;28;20115;-77
2023/10/16 12:32:29;;;;;;;0.50;0.50;;;12.10;99.90;;;;;;5073613;28;20484;-78
2023/10/16 12:35:00;;;;;;;0.60;0.60;;;12.10;99.90;;;;;;5073990;28;20044;-75
2023/10/16 12:37:27;;;;;;;0.50;0.50;;;12.10;99.90;;;;;;5073785;28;20052;-76
2023/10/16 12:39:55;;;;;;;0.50;0.50;;;12.30;99.90;;;;;;5073755;28;20040;-79
2023/10/16 12:42:21;;;;;;;1.55;1.45;;;12.10;99.90;;;;;;5073695;28;20063;-76
2023/10/16 12:44:47;;;;;;;0.60;0.60;;;12.10;99.90;;;;;;5073739;28;20036;-76
2023/10/16 12:47:15;;;;;;;0.50;0.50;;;12.20;99.90;;;;;;5073906;28;20090;-72
2023/10/16 12:49:41;;;;;;;0.70;0.70;;;12.20;99.90;;;;;;5073503;28;20078;-72
2023/10/16 12:52:07;;;;;;;0.70;0.70;;;12.20;99.90;;;;;;5073639;28;20052;-72
2023/10/16 12:54:32;;;;;;;0.60;0.60;;;12.20;99.90;;;;;;5073370;28;20045;-72
2023/10/16 12:56:59;;;;;;;0.50;0.50;;;12.50;99.90;;;;;;5073513;28;20366;-78
2023/10/16 12:59:28;;;;;;;17.40;2.15;;;12.30;99.90;;;;;;5073656;28;20044;-72
2023/10/16 13:01:54;;;;;;;0.60;0.60;;;12.30;99.90;;;;;;5073550;28;20036;-74
2023/10/16 13:04:19;;;;;;;0.70;0.70;;;12.30;99.90;;;;;;5073144;28;20380;-75
2023/10/16 13:06:45;;;;;;;1.13;1.13;;;12.30;99.90;;;;;;5073311;28;20048;-72
2023/10/16 13:09:16;;;;;;;0.60;0.60;;;12.30;99.90;;;;;;5073526;28;20086;-70
2023/10/16 13:11:42;;;;;;;0.60;0.60;;;12.30;99.90;;;;;;5073360;28;20044;-72
2023/10/16 13:14:08;;;;;;;0.60;0.60;;;12.40;99.90;;;;;;5073491;28;20069;-71
2023/10/16 13:16:33;;;;;;;0.60;0.60;;;12.30;99.90;;;;;;5073149;28;20127;-72
2023/10/16 13:19:00;;;;;;;0.60;0.60;;;12.30;99.90;;;;;;5073355;28;20500;-71
2023/10/16 13:21:34;;;;;;;0.70;0.70;;;12.50;99.90;;;;;;5073303;28;20123;-75
2023/10/16 13:24:16;;;;;;;0.60;0.60;;;12.40;99.90;;;;;;5073390;28;20033;-76
2023/10/16 13:26:42;;;;;;;0.70;0.70;;;12.40;99.90;;;;;;5073274;28;20046;-76
2023/10/16 13:29:09;;;;;;;0.60;0.60;;;12.40;99.90;;;;;;5073235;28;20179;-74
2023/10/16 13:31:46;;;;;;;0.60;0.60;;;12.40;99.90;;;;;;5072912;28;20045;-75
2023/10/16 13:34:17;;;;;;;0.70;0.70;;;12.40;99.90;;;;;;5073233;28;20045;-75
2023/10/16 13:37:00;;;;;;;0.60;0.60;;;12.40;99.90;;;;;;5073554;28;20117;-76
2023/10/16 13:39:26;;;;;;;0.60;0.60;;;12.40;99.90;;;;;;5073381;28;20072;-76
2023/10/16 13:41:53;;;;;;;1.20;0.77;;;12.40;99.90;;;;;;5073155;28;20067;-77
2023/10/16 13:44:20;;;;;;;0.60;0.60;;;12.40;99.90;;;;;;5073031;28;20464;-76
2023/10/16 13:46:46;;;;;;;;;;;12.40;99.90;;;;;;5072776;28;20051;-75
2023/10/16 13:49:14;;;;;;;0.60;0.60;;;12.90;99.90;;;;;;5093203;28;19916;-78
2023/10/16 13:51:40;;;;;;;0.60;0.60;;;12.40;99.90;;;;;;5092127;28;20044;-78
2023/10/16 13:54:11;;;;;;;0.55;0.55;;;12.30;99.90;;;;;;5091966;28;20475;-78
2023/10/16 13:56:38;;;;;;;0.60;0.60;;;12.30;99.90;;;;;;5090454;28;20113;-76
2023/10/16 13:59:05;;;;;;;;;;;12.40;99.90;;;;;;5071731;28;20059;-76
2023/10/16 14:01:31;;;;;;;0.60;0.60;;;12.40;99.90;;;;;;5088538;28;19917;-76
2023/10/16 14:03:58;;;;;;;0.87;0.87;;;12.60;99.90;;;;;;5088432;28;20051;-78
2023/10/16 14:06:27;;;;;;;0.60;0.60;;;12.30;99.90;;;;;;5072508;28;20057;-72
2023/10/16 14:08:53;;;;;;;0.65;0.65;;;12.40;99.90;;;;;;5071084;28;20048;-72
2023/10/16 14:11:28;;;;;;;0.60;0.60;;;12.30;99.90;;;;;;5072137;28;20044;-73
2023/10/16 14:13:57;;;;;;;0.60;0.60;;;12.30;99.90;;;;;;5072799;28;20423;-73
2023/10/16 14:16:23;;;;;;;0.60;0.60;;;12.30;99.90;;;;;;5071633;28;20040;-73
2023/10/16 14:18:49;;;;;;;0.77;0.77;;;12.30;99.90;;;;;;5074904;28;20051;-73
2023/10/16 14:21:16;;;;;;;0.60;0.60;;;12.30;99.90;;;;;;5075651;28;20386;-73
2023/10/16 14:23:43;;;;;;;0.55;0.55;;;12.30;99.90;;;;;;5076258;28;20044;-73
2023/10/16 14:26:24;;;;;;;0.55;0.55;;;12.30;99.90;;;;;;5076024;28;20186;-73
2023/10/16 14:28:51;;;;;;;0.60;0.60;;;12.30;99.90;;;;;;5076084;28;20051;-72
2023/10/16 14:31:20;;;;;;;0.60;0.60;;;12.30;99.90;;;;;;5075983;28;20059;-74
2023/10/16 14:33:49;;;;;;;1.70;1.20;;;12.30;99.90;;;;;;5076229;28;20044;-75
2023/10/16 14:36:16;;;;;;;0.60;0.60;;;12.30;99.90;;;;;;5075761;28;20074;-74
2023/10/16 14:38:43;;;;;;;;;;;12.30;99.90;;;;;;5076358;28;20047;-74
2023/10/16 14:41:11;;;;;;;0.60;0.60;;;12.30;99.90;;;;;;5075450;28;19920;-76
2023/10/16 14:43:37;;;;;;;0.60;0.60;;;12.70;99.90;;;;;;5076160;28;20048;-75
2023/10/16 14:46:08;;;;;;;0.60;0.60;;;12.30;99.90;;;;;;5058143;28;20094;-73
2023/10/16 14:48:34;;;;;;;0.60;0.60;;;12.30;99.90;;;;;;5075689;28;20045;-75
2023/10/16 14:51:00;;;;;;;0.60;0.60;;;12.30;99.90;;;;;;5075322;28;20075;-74
2023/10/16 14:53:29;;;;;;;0.60;0.60;;;12.20;99.90;;;;;;5075607;28;20127;-75
2023/10/16 14:55:55;;;;;;;0.65;0.65;;;12.30;99.90;;;;;;5075879;28;20048;-75
2023/10/16 14:58:21;;;;;;;0.70;0.70;;;12.30;99.90;;;;;;5075773;28;20402;-74
2023/10/16 15:00:50;;;;;;;0.60;0.60;;;12.20;99.90;;;;;;5074159;28;20052;-74
2023/10/16 15:03:20;;;;;;;0.60;0.60;;;12.20;99.90;;;;;;5075609;28;20360;-76
2023/10/16 15:05:46;;;;;;;0.68;0.68;;;12.20;99.90;;;;;;5075311;28;20064;-74